Time;durP1;ratioP1;P1;durP2;ratioP2;P2;SDS_P1;SDS_P2;PMS_P1;PMS_P2;Temp;Humidity;BMP_temperature;BMP_pressure;BME280_temperature;BME280_humidity;BME280_pressure;Samples;Min_cycle;Max_cycle;Signal;HPM_P1;HPM_P2
2022/01/03 00:00:03;;;;;;;;;;;10.90;99.90;;;;;;5069453;28;20100;-74
2022/01/03 00:02:29;;;;;;;;;;;10.90;99.90;;;;;;5046590;28;20124;-74
2022/01/03 00:04:56;;;;;;;;;;;10.90;99.90;;;;;;5082523;28;19937;-74
2022/01/03 00:07:23;;;;;;;;;;;10.90;99.90;;;;;;5082096;28;19920;-73
2022/01/03 00:09:50;;;;;;;;;;;10.90;99.90;;;;;;5075049;28;19925;-74
2022/01/03 00:12:20;;;;;;;;;;;10.90;99.90;;;;;;5061991;28;19921;-74
2022/01/03 00:14:48;;;;;;;;;;;10.90;99.90;;;;;;5059481;28;19921;-73
2022/01/03 00:17:16;;;;;;;;;;;10.90;99.90;;;;;;5075160;28;20212;-73
2022/01/03 00:19:43;;;;;;;;;;;11.00;99.90;;;;;;5072276;28;19931;-74
2022/01/03 00:22:12;;;;;;;;;;;10.90;99.90;;;;;;5063533;28;19920;-74
2022/01/03 00:24:39;;;;;;;;;;;10.90;99.90;;;;;;5083928;28;19920;-74
2022/01/03 00:27:11;;;;;;;;;;;10.90;99.90;;;;;;5086079;28;19927;-74
2022/01/03 00:29:44;;;;;;;;;;;10.90;99.90;;;;;;5085445;28;19926;-74
2022/01/03 00:32:11;;;;;;;;;;;10.90;99.90;;;;;;5080402;28;20132;-74
2022/01/03 00:34:39;;;;;;;;;;;10.90;99.90;;;;;;5085250;28;19925;-74
2022/01/03 00:37:06;;;;;;;;;;;10.90;99.90;;;;;;5085759;28;19987;-74
2022/01/03 00:39:33;;;;;;;;;;;10.90;99.90;;;;;;5083435;28;19921;-74
2022/01/03 00:42:00;;;;;;;;;;;10.90;99.90;;;;;;5084626;28;19920;-74
2022/01/03 00:44:26;;;;;;;;;;;10.90;99.90;;;;;;5085050;28;19927;-73
2022/01/03 00:46:53;;;;;;;;;;;10.80;99.90;;;;;;5084935;28;19928;-74
2022/01/03 00:49:20;;;;;;;;;;;10.80;99.90;;;;;;5065515;28;20212;-74
2022/01/03 00:51:48;;;;;;;;;;;10.80;99.90;;;;;;5074203;28;20212;-74
2022/01/03 00:54:15;;;;;;;;;;;10.80;99.90;;;;;;5064990;28;19932;-74
2022/01/03 00:56:46;;;;;;;;;;;10.80;99.90;;;;;;5063203;28;19927;-73
2022/01/03 00:59:13;;;;;;;;;;;10.80;99.90;;;;;;5065549;28;19921;-74
2022/01/03 01:01:45;;;;;;;;;;;10.80;99.90;;;;;;5074368;28;19920;-74
2022/01/03 01:04:11;;;;;;;;;;;10.80;99.90;;;;;;5078552;28;19939;-73
2022/01/03 01:06:38;;;;;;;;;;;10.80;99.90;;;;;;5073412;28;19928;-74
2022/01/03 01:09:07;;;;;;;;;;;10.80;99.90;;;;;;5079198;28;20111;-74
2022/01/03 01:11:34;;;;;;;;;;;10.80;99.90;;;;;;5083106;28;19983;-73
2022/01/03 01:14:01;;;;;;;;;;;10.80;99.90;;;;;;5057942;28;20108;-74
2022/01/03 01:16:29;;;;;;;;;;;10.90;99.90;;;;;;5080065;28;19928;-74
2022/01/03 01:18:56;;;;;;;;;;;10.90;99.90;;;;;;5082715;28;19927;-74
2022/01/03 01:21:23;;;;;;;;;;;10.90;99.90;;;;;;5076334;28;20120;-74
2022/01/03 01:23:51;;;;;;;;;;;10.80;99.90;;;;;;5069580;28;20161;-72
2022/01/03 01:29:04;;;;;;;;;;;10.90;99.90;;;;;;5076412;28;19943;-74
2022/01/03 01:31:33;;;;;;;;;;;11.00;99.90;;;;;;5066721;28;20028;-74
2022/01/03 01:34:02;;;;;;;;;;;11.10;99.90;;;;;;5070867;28;19927;-73
2022/01/03 01:36:30;;;;;;;;;;;11.00;99.90;;;;;;5074217;28;19926;-74
2022/01/03 01:39:00;;;;;;;;;;;11.00;99.90;;;;;;5081733;28;20139;-74
2022/01/03 01:41:29;;;;;;;;;;;11.10;99.90;;;;;;5076044;28;19921;-74
2022/01/03 01:43:58;;;;;;;;;;;11.10;99.90;;;;;;5071594;28;19927;-74
2022/01/03 01:46:25;;;;;;;;;;;11.00;99.90;;;;;;5045021;28;19928;-74
2022/01/03 01:48:54;;;;;;;;;;;11.10;99.90;;;;;;5069473;28;20410;-74
2022/01/03 01:51:22;;;;;;;;;;;11.10;99.90;;;;;;5081273;28;19927;-74
2022/01/03 01:53:49;;;;;;;;;;;11.10;99.90;;;;;;5082979;28;19927;-73
2022/01/03 01:56:17;;;;;;;;;;;11.10;99.90;;;;;;5082217;28;20231;-74
2022/01/03 01:58:52;;;;;;;;;;;11.10;99.90;;;;;;5064783;28;19921;-74
2022/01/03 02:01:21;;;;;;;;;;;11.10;99.90;;;;;;5058306;28;19921;-74
2022/01/03 02:03:48;;;;;;;;;;;11.10;99.90;;;;;;5074660;28;19932;-74
2022/01/03 02:06:32;;;;;;;;;;;11.10;99.90;;;;;;5075147;28;20154;-74
2022/01/03 02:09:03;;;;;;;;;;;11.10;99.90;;;;;;5076044;28;19920;-73
2022/01/03 02:11:37;;;;;;;;;;;11.20;99.90;;;;;;5084255;28;19942;-74
2022/01/03 02:14:06;;;;;;;;;;;11.20;99.90;;;;;;5062720;28;19927;-73
2022/01/03 02:16:33;;;;;;;;;;;11.20;99.90;;;;;;5073081;28;19925;-74
2022/01/03 02:18:59;;;;;;;;;;;11.10;99.90;;;;;;5064513;28;19921;-74
2022/01/03 02:21:27;;;;;;;;;;;11.10;99.90;;;;;;5075706;28;19920;-74
2022/01/03 02:23:54;;;;;;;;;;;11.10;99.90;;;;;;5081204;28;19920;-74
2022/01/03 02:26:20;;;;;;;;;;;10.70;99.90;;;;;;5076818;28;19920;-74
2022/01/03 02:28:47;;;;;;;;;;;9.90;99.90;;;;;;5139989;22;19921;-71
2022/01/03 02:31:17;;;;;;;;;;;9.20;99.90;;;;;;5067392;28;19980;-72
2022/01/03 02:33:44;;;;;;;;;;;8.50;99.90;;;;;;5080894;28;19927;-72
2022/01/03 02:36:10;;;;;;;;;;;8.20;99.90;;;;;;5081166;28;19936;-72
2022/01/03 02:38:38;;;;;;;;;;;8.00;99.90;;;;;;5062085;28;19921;-72
2022/01/03 02:41:05;;;;;;;;;;;7.80;99.90;;;;;;5077095;28;19929;-72
2022/01/03 02:43:31;;;;;;;;;;;7.80;99.90;;;;;;5069117;28;19999;-72
2022/01/03 02:45:58;;;;;;;;;;;7.80;99.90;;;;;;5079515;28;19924;-72
2022/01/03 02:48:26;;;;;;;;;;;7.80;99.90;;;;;;5064577;28;19927;-72
2022/01/03 02:50:53;;;;;;;;;;;7.80;99.90;;;;;;5072074;28;19921;-71
2022/01/03 02:53:19;;;;;;;;;;;7.70;99.90;;;;;;5082951;28;19921;-71
2022/01/03 02:55:48;;;;;;;;;;;7.60;99.90;;;;;;5069508;28;19921;-71
2022/01/03 02:58:15;;;;;;;;;;;7.50;99.90;;;;;;5076609;28;19920;-72
2022/01/03 03:00:45;;;;;;;;;;;7.40;99.90;;;;;;5047140;28;19925;-71
2022/01/03 03:03:11;;;;;;;;;;;7.20;99.90;;;;;;5057884;28;19926;-71
2022/01/03 03:05:38;;;;;;;;;;;7.10;99.90;;;;;;5067445;28;19921;-71
2022/01/03 03:08:05;;;;;;;;;;;7.10;99.90;;;;;;5070292;28;19921;-74
2022/01/03 03:10:31;;;;;;;;;;;7.00;99.90;;;;;;5064061;28;19920;-71
2022/01/03 03:12:59;;;;;;;;;;;7.00;99.90;;;;;;5072585;28;19921;-71
2022/01/03 03:15:26;;;;;;;;;;;7.00;99.90;;;;;;5074622;28;19928;-71
2022/01/03 03:17:52;;;;;;;;;;;6.90;99.90;;;;;;5070646;28;20135;-71
2022/01/03 03:20:20;;;;;;;;;;;6.90;99.90;;;;;;5063396;28;19921;-72
2022/01/03 03:22:49;;;;;;;;;;;6.90;99.90;;;;;;5080131;28;19920;-71
2022/01/03 03:25:17;;;;;;;;;;;6.90;99.90;;;;;;5080927;28;20134;-71
2022/01/03 03:27:46;;;;;;;;;;;6.90;99.90;;;;;;5045087;28;19935;-71
2022/01/03 03:30:15;;;;;;;;;;;6.90;99.90;;;;;;5066450;28;19974;-71
2022/01/03 03:32:42;;;;;;;;;;;6.80;99.90;;;;;;5077840;28;19921;-72
2022/01/03 03:35:09;;;;;;;;;;;6.70;99.90;;;;;;5065989;28;19928;-71
2022/01/03 03:37:36;;;;;;;;;;;6.70;99.90;;;;;;5072533;28;19920;-71
2022/01/03 03:40:03;;;;;;;;;;;6.60;99.90;;;;;;5070544;28;19928;-72
2022/01/03 03:42:30;;;;;;;;;;;6.60;99.90;;;;;;5078514;28;19920;-71
2022/01/03 03:44:57;;;;;;;;;;;6.60;99.90;;;;;;5074507;28;19927;-71
2022/01/03 03:47:24;;;;;;;;;;;6.60;99.90;;;;;;5080274;28;19987;-71
2022/01/03 03:49:51;;;;;;;;;;;6.60;99.90;;;;;;5064897;28;19927;-71
2022/01/03 03:52:18;;;;;;;;;;;6.60;99.90;;;;;;5062794;28;19943;-73
2022/01/03 03:54:44;;;;;;;;;;;6.70;99.90;;;;;;5062491;28;19947;-71
2022/01/03 03:57:12;;;;;;;;;;;6.70;99.90;;;;;;5061403;28;19927;-71
2022/01/03 03:59:39;;;;;;;;;;;6.70;99.90;;;;;;5086355;28;20155;-71
2022/01/03 04:02:05;;;;;;;;;;;6.70;99.90;;;;;;5086275;28;19983;-71
2022/01/03 04:04:34;;;;;;;;;;;6.70;99.90;;;;;;5086057;28;19921;-72
2022/01/03 04:07:00;;;;;;;;;;;6.70;99.90;;;;;;5069044;28;19980;-71
2022/01/03 04:09:27;;;;;;;;;;;6.70;99.90;;;;;;5079644;28;20115;-72
2022/01/03 04:11:54;;;;;;;;;;;6.70;99.90;;;;;;5085342;28;19920;-71
2022/01/03 04:14:20;;;;;;;;;;;6.70;99.90;;;;;;5084693;28;19927;-71
2022/01/03 04:16:47;;;;;;;;;;;6.70;99.90;;;;;;5063177;28;19927;-71
2022/01/03 04:19:13;;;;;;;;;;;6.70;99.90;;;;;;5075235;28;19942;-71
2022/01/03 04:21:42;;;;;;;;;;;6.80;99.90;;;;;;5084213;28;19928;-71
2022/01/03 04:24:09;;;;;;;;;;;6.80;99.90;;;;;;5079750;28;19925;-71
2022/01/03 04:26:37;;;;;;;;;;;6.90;99.90;;;;;;5075350;28;20226;-71
2022/01/03 04:29:04;;;;;;;;;;;6.90;99.90;;;;;;5061473;28;19921;-71
2022/01/03 04:31:31;;;;;;;;;;;6.90;99.90;;;;;;5071650;28;20123;-71
2022/01/03 04:33:57;;;;;;;;;;;6.80;99.90;;;;;;5082962;28;19987;-72
2022/01/03 04:36:24;;;;;;;;;;;6.80;99.90;;;;;;5070574;28;19921;-71
2022/01/03 04:38:52;;;;;;;;;;;6.80;99.90;;;;;;5073779;28;19921;-71
2022/01/03 04:41:19;;;;;;;;;;;6.80;99.90;;;;;;5085510;28;19920;-71
2022/01/03 04:43:45;;;;;;;;;;;6.80;99.90;;;;;;5079060;28;19920;-71
2022/01/03 04:46:12;;;;;;;;;;;6.80;99.90;;;;;;5081227;28;19920;-72
2022/01/03 04:48:39;;;;;;;;;;;6.80;99.90;;;;;;5074906;28;19929;-71
2022/01/03 04:51:06;;;;;;;;;;;6.80;99.90;;;;;;5074011;28;19924;-72
2022/01/03 04:53:36;;;;;;;;;;;6.80;99.90;;;;;;5076321;28;19921;-71
2022/01/03 04:56:04;;;;;;;;;;;6.80;99.90;;;;;;5078268;28;19928;-71
2022/01/03 04:58:30;;;;;;;;;;;6.80;99.90;;;;;;5081906;28;19927;-71
2022/01/03 05:00:57;;;;;;;;;;;6.70;99.90;;;;;;5084102;28;19926;-71
2022/01/03 05:03:24;;;;;;;;;;;6.70;99.90;;;;;;5067689;28;19921;-71
2022/01/03 05:05:50;;;;;;;;;;;6.70;99.90;;;;;;5068549;28;20123;-72
2022/01/03 05:08:17;;;;;;;;;;;6.70;99.90;;;;;;5080466;28;19943;-71
2022/01/03 05:10:43;;;;;;;;;;;6.80;99.90;;;;;;5075595;28;19927;-71
2022/01/03 05:13:11;;;;;;;;;;;6.70;99.90;;;;;;5082996;28;19924;-71
2022/01/03 05:15:38;;;;;;;;;;;6.70;99.90;;;;;;5082340;28;19924;-71
2022/01/03 05:18:04;;;;;;;;;;;6.70;99.90;;;;;;5083911;28;19927;-72
2022/01/03 05:20:31;;;;;;;;;;;6.60;99.90;;;;;;5084437;28;19920;-71
2022/01/03 05:22:57;;;;;;;;;;;6.60;99.90;;;;;;5084580;28;19944;-71
2022/01/03 05:25:24;;;;;;;;;;;6.60;99.90;;;;;;5066618;28;19928;-71
2022/01/03 05:27:51;;;;;;;;;;;6.60;99.90;;;;;;5064910;28;19921;-72
2022/01/03 05:30:19;;;;;;;;;;;6.60;99.90;;;;;;5064410;28;20220;-71
2022/01/03 05:32:45;;;;;;;;;;;6.60;99.90;;;;;;5064827;28;19921;-71
2022/01/03 05:35:12;;;;;;;;;;;6.50;99.90;;;;;;5064031;28;19959;-71
2022/01/03 05:37:38;;;;;;;;;;;6.50;99.90;;;;;;5064699;28;20232;-71
2022/01/03 05:40:06;;;;;;;;;;;6.50;99.90;;;;;;5064833;28;19921;-72
2022/01/03 05:42:33;;;;;;;;;;;6.50;99.90;;;;;;5080447;28;19936;-74
2022/01/03 05:45:00;;;;;;;;;;;6.50;99.90;;;;;;5084062;28;19943;-71
2022/01/03 05:47:28;;;;;;;;;;;6.50;99.90;;;;;;5064794;28;19983;-71
2022/01/03 05:49:55;;;;;;;;;;;6.40;99.90;;;;;;5059500;28;19979;-72
2022/01/03 05:52:21;;;;;;;;;;;6.40;99.90;;;;;;5064344;28;19936;-71
2022/01/03 05:54:48;;;;;;;;;;;6.50;99.90;;;;;;5054739;28;19943;-71
2022/01/03 05:57:15;;;;;;;;;;;6.50;99.90;;;;;;5071429;28;19920;-71
2022/01/03 05:59:41;;;;;;;;;;;6.50;99.90;;;;;;5069764;28;19920;-71
2022/01/03 06:02:08;;;;;;;;;;;6.60;99.90;;;;;;5082159;28;20213;-72
2022/01/03 06:04:42;;;;;;;;;;;6.60;99.90;;;;;;5076504;28;19928;-71
2022/01/03 06:07:10;;;;;;;;;;;6.70;99.90;;;;;;5074952;28;20216;-72
2022/01/03 06:09:36;;;;;;;;;;;6.70;99.90;;;;;;5083975;28;19921;-71
2022/01/03 06:12:03;;;;;;;;;;;6.70;99.90;;;;;;5083916;28;19920;-71
2022/01/03 06:14:30;;;;;;;;;;;6.80;99.90;;;;;;5083334;28;20115;-71
2022/01/03 06:16:57;;;;;;;;;;;6.80;99.90;;;;;;5078678;28;19929;-72
2022/01/03 06:19:24;;;;;;;;;;;6.90;99.90;;;;;;5063154;28;19929;-74
2022/01/03 06:21:52;;;;;;;;;;;7.00;99.90;;;;;;5075388;28;20369;-71
2022/01/03 06:24:19;;;;;;;;;;;7.00;99.90;;;;;;5076568;28;19927;-72
2022/01/03 06:26:46;;;;;;;;;;;7.00;99.90;;;;;;5077312;28;19921;-76
2022/01/03 06:29:14;;;;;;;;;;;7.10;99.90;;;;;;5058775;28;19925;-72
2022/01/03 06:31:41;;;;;;;;;;;7.10;99.90;;;;;;5065803;28;19920;-71
2022/01/03 06:34:09;;;;;;;;;;;7.10;99.90;;;;;;5069959;28;19920;-71
2022/01/03 06:36:35;;;;;;;;;;;7.30;99.90;;;;;;5066482;28;19927;-71
2022/01/03 06:39:04;;;;;;;;;;;7.30;99.90;;;;;;5063692;28;19928;-71
2022/01/03 06:41:31;;;;;;;;;;;7.30;99.90;;;;;;5064174;28;19927;-71
2022/01/03 06:43:58;;;;;;;;;;;7.40;99.90;;;;;;5063577;28;19921;-71
2022/01/03 06:46:24;;;;;;;;;;;7.40;99.90;;;;;;5079263;28;19928;-71
2022/01/03 06:48:51;;;;;;;;;;;7.50;99.90;;;;;;5064136;28;20108;-72
2022/01/03 06:51:18;;;;;;;;;;;7.50;99.90;;;;;;5063930;28;19921;-72
2022/01/03 06:53:44;;;;;;;;;;;7.60;99.90;;;;;;5063582;28;20211;-71
2022/01/03 06:56:27;;;;;;;;;;;7.60;99.90;;;;;;5063325;28;20243;-71
2022/01/03 06:58:55;;;;;;;;;;;7.70;99.90;;;;;;5063504;28;20226;-71
2022/01/03 07:01:22;;;;;;;;;;;7.80;99.90;;;;;;5053872;28;19921;-71
2022/01/03 07:03:48;;;;;;;;;;;7.70;99.90;;;;;;5043973;28;19988;-71
2022/01/03 07:06:15;;;;;;;;;;;7.80;99.90;;;;;;5057502;28;19921;-71
2022/01/03 07:08:41;;;;;;;;;;;7.80;99.90;;;;;;5068912;28;19929;-72
2022/01/03 07:11:08;;;;;;;;;;;7.90;99.90;;;;;;5073018;28;19924;-71
2022/01/03 07:13:42;;;;;;;;;;;7.90;99.90;;;;;;5083667;28;19966;-71
2022/01/03 07:18:59;;;;;;;;;;;8.00;99.90;;;;;;5061809;28;19927;-71
2022/01/03 07:21:26;;;;;;;;;;;8.00;99.90;;;;;;5055416;28;20028;-72
2022/01/03 07:23:52;;;;;;;;;;;8.00;99.90;;;;;;5043113;28;19921;-72
2022/01/03 07:26:19;;;;;;;;;;;8.10;99.90;;;;;;5043236;28;19927;-70
2022/01/03 07:28:46;;;;;;;;;;;8.20;99.90;;;;;;5042978;28;19928;-72
2022/01/03 07:31:14;;;;;;;;;;;8.20;99.90;;;;;;5042885;28;19921;-72
2022/01/03 07:33:40;;;;;;;;;;;8.30;99.90;;;;;;5046604;28;19921;-72
2022/01/03 07:36:08;;;;;;;;;;;8.30;99.90;;;;;;5048056;28;19959;-72
2022/01/03 07:38:34;;;;;;;;;;;8.30;99.90;;;;;;5049311;28;19984;-72
2022/01/03 07:41:03;;;;;;;;;;;8.30;99.90;;;;;;5047532;28;19943;-71
2022/01/03 07:43:29;;;;;;;;;;;8.30;99.90;;;;;;5047536;28;19968;-72
2022/01/03 07:45:56;;;;;;;;;;;8.30;99.90;;;;;;5077419;28;19925;-71
2022/01/03 07:48:24;;;;;;;;;;;8.40;99.90;;;;;;5086924;28;19920;-71
2022/01/03 07:50:50;;;;;;;;;;;8.40;99.90;;;;;;5061103;28;19925;-70
2022/01/03 07:53:17;;;;;;;;;;;8.50;99.90;;;;;;5047224;28;19925;-71
2022/01/03 07:55:44;;;;;;;;;;;8.50;99.90;;;;;;5078560;28;19943;-72
2022/01/03 07:58:14;;;;;;;;;;;8.50;99.90;;;;;;5084763;28;19920;-72
2022/01/03 08:00:40;;;;;;;;;;;8.50;99.90;;;;;;5063058;28;19944;-71
2022/01/03 08:03:07;;;;;;;;;;;8.50;99.90;;;;;;5083280;28;19920;-72
2022/01/03 08:05:35;;;;;;;;;;;8.50;99.90;;;;;;5085759;28;19920;-72
2022/01/03 08:08:02;;;;;;;;;;;8.50;99.90;;;;;;5066530;28;19927;-71
2022/01/03 08:10:29;;;;;;;;;;;8.50;99.90;;;;;;5065979;28;19980;-72
2022/01/03 08:12:55;;;;;;;;;;;8.50;99.90;;;;;;5066049;28;19927;-73
2022/01/03 08:15:23;;;;;;;;;;;8.50;99.90;;;;;;5067666;28;19928;-72
2022/01/03 08:17:50;;;;;;;;;;;8.50;99.90;;;;;;5075997;28;20212;-71
2022/01/03 08:20:17;;;;;;;;;;;8.50;99.90;;;;;;5063889;28;19921;-71
2022/01/03 08:22:44;;;;;;;;;;;8.50;99.90;;;;;;5066670;28;19921;-71
2022/01/03 08:25:11;;;;;;;;;;;8.50;99.90;;;;;;5066594;28;19920;-70
2022/01/03 08:27:38;;;;;;;;;;;8.60;99.90;;;;;;5082280;22;20133;-96
2022/01/03 08:30:12;;;;;;;;;;;8.60;99.90;;;;;;5120161;28;19908;-96
2022/01/03 08:32:38;;;;;;;;;;;8.60;99.90;;;;;;5118325;28;19958;-96
2022/01/03 08:35:06;;;;;;;;;;;8.60;99.90;;;;;;5116910;28;19980;-95
2022/01/03 08:37:33;;;;;;;;;;;8.60;99.90;;;;;;5119427;28;19942;-96
2022/01/03 08:40:06;;;;;;;;;;;8.60;99.90;;;;;;5119388;28;19968;-94
2022/01/03 08:42:33;;;;;;;;;;;8.60;99.90;;;;;;5081090;28;19933;-96
2022/01/03 08:45:00;;;;;;;;;;;8.60;99.90;;;;;;5106646;22;19955;-74
2022/01/03 08:47:27;;;;;;;;;;;8.60;99.90;;;;;;5106429;28;19920;-73
2022/01/03 08:49:53;;;;;;;;;;;8.70;99.90;;;;;;5093331;28;19920;-74
2022/01/03 08:52:20;;;;;;;;;;;8.70;99.90;;;;;;5086239;28;20214;-73
2022/01/03 08:54:46;;;;;;;;;;;8.70;99.90;;;;;;5087298;28;19927;-74
2022/01/03 08:57:14;;;;;;;;;;;8.70;99.90;;;;;;5106319;28;19987;-73
2022/01/03 08:59:41;;;;;;;;;;;8.80;99.90;;;;;;5091232;28;20146;-73
2022/01/03 09:02:08;;;;;;;;;;;8.80;99.90;;;;;;5086045;28;19927;-73
2022/01/03 09:04:35;;;;;;;;;;;8.80;99.90;;;;;;5090907;28;19974;-73
2022/01/03 09:07:02;;;;;;;;;;;8.80;99.90;;;;;;5089665;28;19920;-73
2022/01/03 09:09:30;;;;;;;;;;;8.80;99.90;;;;;;5085276;28;20003;-73
2022/01/03 09:11:57;;;;;;;;;;;8.80;99.90;;;;;;5089332;28;19975;-72
2022/01/03 09:14:25;;;;;;;;;;;8.80;99.90;;;;;;5064867;28;19920;-73
2022/01/03 09:16:51;;;;;;;;;;;8.90;99.90;;;;;;5073759;28;20398;-72
2022/01/03 09:19:18;;;;;;;;;;;8.90;99.90;;;;;;5079960;28;19925;-73
2022/01/03 09:21:45;;;;;;;;;;;9.00;99.90;;;;;;5085516;28;19920;-73
2022/01/03 09:24:25;;;;;;;;;;;8.90;99.90;;;;;;5085291;28;19921;-72
2022/01/03 09:29:37;;;;;;;;;;;8.90;99.90;;;;;;5105511;28;20237;-72
2022/01/03 09:32:04;;;;;;;;;;;9.00;99.90;;;;;;5102629;28;20222;-73
2022/01/03 09:34:30;;;;;;;;;;;8.90;99.90;;;;;;5084935;28;19942;-73
2022/01/03 09:36:57;;;;;;;;;;;8.90;99.90;;;;;;5085501;28;19921;-74
2022/01/03 09:39:23;;;;;;;;;;;8.90;99.90;;;;;;5079079;28;20225;-73
2022/01/03 09:41:56;;;;;;;;;;;8.90;99.90;;;;;;5085566;28;19989;-73
2022/01/03 09:44:28;;;;;;;;;;;8.80;99.90;;;;;;5100481;28;19942;-73
2022/01/03 09:46:59;;;;;;;;;;;8.70;99.90;;;;;;5105119;28;19926;-72
2022/01/03 09:49:26;;;;;;;;;;;8.70;99.90;;;;;;5093284;28;19927;-73
2022/01/03 09:51:53;;;;;;;;;;;8.60;99.90;;;;;;5065170;28;19925;-72
2022/01/03 09:54:22;;;;;;;;;;;8.60;99.90;;;;;;5066012;28;19925;-73
2022/01/03 09:56:50;;;;;;;;;;;8.60;99.90;;;;;;5064918;28;19936;-74
2022/01/03 09:59:19;;;;;;;;;;;8.50;99.90;;;;;;5070812;28;19927;-73
2022/01/03 10:01:46;;;;;;;;;;;8.50;99.90;;;;;;5084309;28;19966;-73
2022/01/03 10:04:15;;;;;;;;;;;8.40;99.90;;;;;;5072923;28;19928;-78
2022/01/03 10:06:42;;;;;;;;;;;8.40;99.90;;;;;;5084891;28;19920;-76
2022/01/03 10:09:08;;;;;;;;;;;8.40;99.90;;;;;;5084622;28;19920;-73
2022/01/03 10:11:35;;;;;;;;;;;8.30;99.90;;;;;;5083910;28;19929;-73
2022/01/03 10:14:01;;;;;;;;;;;8.30;99.90;;;;;;5078798;28;20200;-73
2022/01/03 10:16:29;;;;;;;;;;;8.30;99.90;;;;;;5084787;28;19943;-75
2022/01/03 10:18:56;;;;;;;;;;;8.30;99.90;;;;;;5081867;28;20227;-72
2022/01/03 10:21:37;;;;;;;;;;;8.30;99.90;;;;;;5064420;28;19925;-73
2022/01/03 10:24:04;;;;;;;;;;;8.30;99.90;;;;;;5064236;28;19959;-74
2022/01/03 10:26:30;;;;;;;;;;;8.30;99.90;;;;;;5064343;28;19921;-74
2022/01/03 10:29:13;;;;;;;;;;;8.20;99.90;;;;;;5065465;28;19929;-73
2022/01/03 10:31:40;;;;;;;;;;;8.20;99.90;;;;;;5064677;28;19984;-73
2022/01/03 10:34:08;;;;;;;;;;;8.30;99.90;;;;;;5065151;28;19921;-75
2022/01/03 10:36:37;;;;;;;;;;;8.30;99.90;;;;;;5104698;28;19920;-73
2022/01/03 10:39:11;;;;;;;;;;;8.30;99.90;;;;;;5103984;28;20100;-75
2022/01/03 10:41:38;;;;;;;;;;;8.30;99.90;;;;;;5097103;28;19927;-73
2022/01/03 10:44:04;;;;;;;;;;;8.30;99.90;;;;;;5063925;28;19920;-75
2022/01/03 10:46:32;;;;;;;;;;;8.40;99.90;;;;;;5063754;28;20226;-76
2022/01/03 10:49:06;;;;;;;;;;;8.20;99.90;;;;;;5064675;28;19920;-75
2022/01/03 10:51:33;;;;;;;;;;;8.30;99.90;;;;;;5064824;28;19925;-75
2022/01/03 10:54:01;;;;;;;;;;;8.30;99.90;;;;;;5063403;28;19921;-75
2022/01/03 10:56:29;;;;;;;;;;;8.40;99.90;;;;;;5081501;28;19979;-75
2022/01/03 10:58:56;;;;;;;;;;;8.40;99.90;;;;;;5083349;28;19942;-75
2022/01/03 11:01:23;;;;;;;;;;;8.40;99.90;;;;;;5083272;28;19921;-75
2022/01/03 11:03:51;;;;;;;;;;;8.40;99.90;;;;;;5082947;28;20230;-75
2022/01/03 11:06:35;;;;;;;;;;;8.40;99.90;;;;;;5081758;28;19983;-75
2022/01/03 11:11:49;;;;;;;;;;;8.50;99.90;;;;;;5062727;28;19927;-75
2022/01/03 11:14:30;;;;;;;;;;;8.50;99.90;;;;;;5063632;28;20151;-75
2022/01/03 11:16:57;;;;;;;;;;;8.60;99.90;;;;;;5063771;28;20108;-75
2022/01/03 11:19:35;;;;;;;;;;;8.60;99.90;;;;;;5062945;28;19959;-75
2022/01/03 11:22:01;;;;;;;;;;;8.60;99.90;;;;;;5063397;28;19920;-76
2022/01/03 11:24:29;;;;;;;;;;;8.60;99.90;;;;;;5063088;28;19928;-74
2022/01/03 11:26:56;;;;;;;;;;;8.60;99.90;;;;;;5076239;28;19920;-75
2022/01/03 11:29:25;;;;;;;;;;;8.70;99.90;;;;;;5088832;28;19924;-74
2022/01/03 11:31:53;;;;;;;;;;;8.60;99.90;;;;;;5100147;28;19920;-74
2022/01/03 11:34:23;;;;;;;;;;;8.70;99.90;;;;;;5102188;28;19956;-74
2022/01/03 11:36:50;;;;;;;;;;;8.70;99.90;;;;;;5087965;28;19920;-74
2022/01/03 11:39:19;;;;;;;;;;;8.70;99.90;;;;;;5082593;28;19931;-72
2022/01/03 11:41:47;;;;;;;;;;;8.70;99.90;;;;;;5082806;28;19927;-74
2022/01/03 11:44:15;;;;;;;;;;;8.70;99.90;;;;;;5082250;28;19927;-72
2022/01/03 11:46:43;;;;;;;;;;;8.70;99.90;;;;;;5099151;28;19920;-74
2022/01/03 11:49:09;;;;;;;;;;;8.70;99.90;;;;;;5099588;28;19987;-74
2022/01/03 11:51:37;;;;;;;;;;;8.70;99.90;;;;;;5097660;28;20115;-74
2022/01/03 11:54:04;;;;;;;;;;;8.70;99.90;;;;;;5088750;28;19920;-76
2022/01/03 11:56:33;;;;;;;;;;;8.80;99.90;;;;;;5083612;28;19925;-74
2022/01/03 11:59:20;;;;;;;;;;;8.80;99.90;;;;;;5080971;28;19929;-74
2022/01/03 12:04:33;;;;;;;;;;;8.80;99.90;;;;;;5090596;28;19924;-72
2022/01/03 12:07:05;;;;;;;;;;;8.80;99.90;;;;;;5102791;28;19920;-72
2022/01/03 12:09:32;;;;;;;;;;;8.80;99.90;;;;;;5102073;28;19928;-73
2022/01/03 12:11:59;;;;;;;;;;;8.90;99.90;;;;;;5083762;28;19920;-73
2022/01/03 12:14:39;;;;;;;;;;;8.90;99.90;;;;;;5082196;28;19920;-73
2022/01/03 12:17:06;;;;;;;;;;;8.90;99.90;;;;;;5082475;28;19924;-72
2022/01/03 12:19:34;;;;;;;;;;;8.90;99.90;;;;;;5073441;28;19920;-73
2022/01/03 12:22:02;;;;;;;;;;;9.00;99.90;;;;;;5098008;28;20215;-73
2022/01/03 12:24:55;;;;;;;;;;;9.00;99.90;;;;;;5102108;28;19983;-72
2022/01/03 12:27:26;;;;;;;;;;;9.00;99.90;;;;;;5070532;28;19927;-72
2022/01/03 12:30:20;;;;;;;;;;;9.00;99.90;;;;;;5090147;28;20372;-72
2022/01/03 12:33:01;;;;;;;;;;;9.00;99.90;;;;;;5068567;28;19991;-73
2022/01/03 12:35:29;;;;;;;;;;;9.00;99.90;;;;;;5095245;28;19921;-73
2022/01/03 12:38:12;;;;;;;;;;;9.00;99.90;;;;;;5086380;28;19958;-73
2022/01/03 12:40:46;;;;;;;;;;;9.00;99.90;;;;;;5085455;28;19920;-73
2022/01/03 12:43:14;;;;;;;;;;;9.00;99.90;;;;;;5105310;28;19920;-73
2022/01/03 12:45:52;;;;;;;;;;;8.90;99.90;;;;;;5091103;28;20089;-72
2022/01/03 12:48:19;;;;;;;;;;;8.90;99.90;;;;;;5077475;28;19920;-73
2022/01/03 12:51:09;;;;;;;;;;;9.00;99.90;;;;;;5083432;28;19958;-73
2022/01/03 12:53:40;;;;;;;;;;;8.90;99.90;;;;;;5080310;28;20191;-72
2022/01/03 12:56:08;;;;;;;;;;;9.00;99.90;;;;;;5087933;28;19927;-73
2022/01/03 12:58:42;;;;;;;;;;;9.00;99.90;;;;;;5085911;28;19921;-72
2022/01/03 13:01:21;;;;;;;;;;;9.00;99.90;;;;;;5085323;28;19992;-72
2022/01/03 13:03:49;;;;;;;;;;;8.90;99.90;;;;;;5084974;28;19920;-72
2022/01/03 13:06:18;;;;;;;;;;;9.00;99.90;;;;;;5080133;28;19921;-72
2022/01/03 13:09:00;;;;;;;;;;;9.00;99.90;;;;;;5081842;28;19924;-73
2022/01/03 13:11:28;;;;;;;;;;;9.10;99.90;;;;;;5081708;28;19920;-73
2022/01/03 13:13:55;;;;;;;;;;;9.10;99.90;;;;;;5092037;28;19924;-72
2022/01/03 13:16:23;;;;;;;;;;;9.10;99.90;;;;;;5083937;28;19920;-73
2022/01/03 13:18:50;;;;;;;;;;;9.00;99.90;;;;;;5085690;28;19943;-72
2022/01/03 13:24:30;;;;;;;;;;;9.00;99.90;;;;;;5120993;27;20163;-73
2022/01/03 13:26:58;;;;;;;;;;;9.00;99.90;;;;;;5121391;28;20242;-72
2022/01/03 13:29:26;;;;;;;;;;;9.00;99.90;;;;;;5102059;28;19920;-73
2022/01/03 13:31:53;;;;;;;;;;;9.00;99.90;;;;;;5101285;28;19920;-74
2022/01/03 13:34:20;;;;;;;;;;;9.00;99.90;;;;;;5099960;28;19920;-73
2022/01/03 13:36:47;;;;;;;;;;;9.10;99.90;;;;;;5100984;28;19943;-73
2022/01/03 13:39:14;;;;;;;;;;;9.20;99.90;;;;;;5100462;28;19986;-73
2022/01/03 13:41:43;;;;;;;;;;;9.20;99.90;;;;;;5100842;28;19927;-73
2022/01/03 13:44:14;;;;;;;;;;;9.20;99.90;;;;;;5099996;28;19921;-74
2022/01/03 13:49:28;;;;;;;;;;;9.20;99.90;;;;;;5100718;28;19951;-72
2022/01/03 13:51:56;;;;;;;;;;;9.20;99.90;;;;;;5100745;28;19920;-72
2022/01/03 13:54:23;;;;;;;;;;;9.20;99.90;;;;;;5099721;28;19920;-72
2022/01/03 13:56:52;;;;;;;;;;;9.20;99.90;;;;;;5100460;28;19927;-72
2022/01/03 13:59:18;;;;;;;;;;;9.10;99.90;;;;;;5100835;28;19935;-72
2022/01/03 14:01:45;;;;;;;;;;;9.00;99.90;;;;;;5100333;28;20212;-71
2022/01/03 14:04:12;;;;;;;;;;;9.00;99.90;;;;;;5099293;28;19920;-72
2022/01/03 14:06:38;;;;;;;;;;;9.00;99.90;;;;;;5098145;28;20205;-72
2022/01/03 14:09:15;;;;;;;;;;;8.90;99.90;;;;;;5100484;28;19964;-73
2022/01/03 14:11:42;;;;;;;;;;;8.90;99.90;;;;;;5100356;28;19928;-74
2022/01/03 14:14:10;;;;;;;;;;;8.90;99.90;;;;;;5089188;28;19935;-73
2022/01/03 14:16:53;;;;;;;;;;;9.00;99.90;;;;;;5095572;28;19920;-73
2022/01/03 14:19:20;;;;;;;;;;;9.00;99.90;;;;;;5099352;28;19929;-72
2022/01/03 14:21:48;;;;;;;;;;;9.00;99.90;;;;;;5100213;28;19920;-75
2022/01/03 14:24:15;;;;;;;;;;;9.10;99.90;;;;;;5117277;28;19920;-73
2022/01/03 14:26:41;;;;;;;;;;;9.10;99.90;;;;;;5118568;28;19926;-73
2022/01/03 14:29:10;;;;;;;;;;;9.00;99.90;;;;;;5117849;22;19924;-70
2022/01/03 14:31:45;;;;;;;;;;;9.00;99.90;;;;;;5081476;28;19921;-68
2022/01/03 14:34:12;;;;;;;;;;;9.10;99.90;;;;;;5074865;28;19921;-68
2022/01/03 14:36:39;;;;;;;;;;;9.10;99.90;;;;;;5066400;28;19928;-68
2022/01/03 14:39:06;;;;;;;;;;;9.10;99.90;;;;;;5066286;28;19921;-68
2022/01/03 14:41:33;;;;;;;;;;;9.10;99.90;;;;;;5078865;28;19920;-68
2022/01/03 14:44:01;;;;;;;;;;;9.10;99.90;;;;;;5084741;28;19920;-68
2022/01/03 14:46:31;;;;;;;;;;;9.10;99.90;;;;;;5086263;28;19920;-68
2022/01/03 14:48:59;;;;;;;;;;;9.10;99.90;;;;;;5085761;28;19920;-68
2022/01/03 14:51:36;;;;;;;;;;;9.00;99.90;;;;;;5085364;28;19920;-68
2022/01/03 14:54:16;;;;;;;;;;;9.10;99.90;;;;;;5085411;28;19928;-69